Detall de PIREP

Printer-friendly versionPDF version

[2010/10/23 16:06:00]
Flight IATA:CT1006
Pilot Number:026
Company ICAO:CAT
Aircraft Type:DC85/A
PAX:132
Departing Airport: LICJ
Destination Airport: LTBA
Alternate Airport:LBWN
Online: VATSIM
Route:ROSAS/M080F340 UQ152 CDC UL869 KRK/M080F350 UM600 TSL UM603 GOLDO UG12 EKI
Flight Level:FL350
No Slew and time accel
No pause
Crash detect
Detect pilot in Cockpit between each 30 and 45 minutes
16:06 Zero fuel Weight: 170887 Lbs, Fuel Weight: 38608 Lbs
16:06 VATSIM:LICJ 231520Z 07012KT 9999 BKN025 20/13 Q1018
16:06 VATSIM:LTBA 231450Z 33013KT 9999 SCT040 14/09 Q1022 NOSIG
16:06 VOICE CATALONIAN / ALMOGAVERS ROUTE
16:16 Parking Brakes off
16:26 Take-off
16:26 Take off Weight: 208333 Lbs
16:26 Wind: 069º @ 010 Knots Heading: 065º
16:26 POS N38º 10´ 52´´ E013º 06´ 26´´
16:26 Gear Up: 191 Knots
16:26 Flaps:1 at 191 Knots
16:28 Flaps:0 at 247 Knots
16:41 Wind:158º@009 Knots Heading: 086º Ground Speed: 466 Knots Altitude 30298 ft
16:56 Wind:159º@024 Knots Heading: 062º Ground Speed: 478 Knots Altitude 34379 ft
16:58 TOC
16:58 Fuel Weight: 28524 Lb
17:11 Wind:213º@014 Knots Heading: 080º Ground Speed: 487 Knots Altitude 35173 ft
17:26 Wind:087º@005 Knots Heading: 066º Ground Speed: 486 Knots Altitude 35278 ft
17:41 Wind:033º@005 Knots Heading: 079º Ground Speed: 480 Knots Altitude 35226 ft
17:44 TOD
17:44 Fuel Weight: 17995 Lb
17:56 Wind:016º@021 Knots Heading: 090º Ground Speed: 400 Knots Altitude 16797 ft
18:11 Wind:046º@009 Knots Heading: 052º Ground Speed: 215 Knots Altitude 3077 ft
18:11 Flaps:1 at 218 Knots
18:11 Gear Down: 218 Knots
18:12 Flaps:2 at 201 Knots
18:13 Flaps:3 at 168 Knots
18:13 Flaps:4 at 159 Knots
18:14 Flaps:5 at 147 Knots
18:14 TouchDown:Rate -276 ft/min Speed: 126 Knots
18:14 VATSIM:LTBA 231750Z 05006KT010V140 9999 SCT035 15/11 Q1021 NOSIG
18:14 Land
18:14 Wind:328º@006 Knots
18:14 Heading: 058º
18:14 Flight Duration: 01:48
18:14 Landing Weight: 184775 Lbs
18:14 POS N40º 58´ 25´´ E028º 49´ 38´´
18:19 Parking brakes on
18:19 Block to Block Duration: 02:03
18:19 Final Fuel: 13461 Lbls
18:19 Spent Fuel: 25147 Lbls
18:19 Flight Length: 762 NM
18:19 TOD Land Length: 168 NM

Exportar CSV

Powered by Drupal - Modified by Danger4k